Time;durP1;ratioP1;P1;durP2;ratioP2;P2;SDS_P1;SDS_P2;PMS_P1;PMS_P2;Temp;Humidity;BMP_temperature;BMP_pressure;BME280_temperature;BME280_humidity;BME280_pressure;Samples;Min_cycle;Max_cycle;Signal;HPM_P1;HPM_P2
2022/10/07 05:57:40;;;;;;;6.72;2.78;;;;;;;6.53;72.17;101242.88;4969027;23;20050;-61
2022/10/07 06:00:08;;;;;;;5.85;2.90;;;;;;;6.52;71.80;101241.25;4972194;28;20422;-61
2022/10/07 06:02:36;;;;;;;7.18;3.30;;;;;;;6.52;72.35;101238.47;4970552;28;20055;-62
2022/10/07 06:05:03;;;;;;;4.78;2.55;;;;;;;6.58;72.62;101237.41;4971918;28;20059;-61
2022/10/07 06:07:30;;;;;;;7.35;2.88;;;;;;;6.64;72.82;101234.38;4972541;28;20051;-61
2022/10/07 06:15:30;;;;;;;7.85;2.63;;;;;;;6.87;72.59;101210.94;4970659;28;20458;-60
2022/10/07 06:17:57;;;;;;;7.85;3.22;;;;;;;6.98;72.25;101213.75;4972713;28;20061;-61
2022/10/07 06:20:24;;;;;;;6.95;2.95;;;;;;;7.51;71.55;101208.88;4971867;28;20055;-59
2022/10/07 06:22:53;;;;;;;9.88;5.78;;;;;;;8.25;69.02;101209.38;4970848;28;20063;-60
2022/10/07 06:25:20;;;;;;;7.82;3.30;;;;;;;8.82;67.24;101216.47;4972835;28;20069;-60
2022/10/07 06:27:49;;;;;;;6.28;3.58;;;;;;;9.41;63.14;101213.91;4972608;28;20085;-60
2022/10/07 06:30:16;;;;;;;4.30;3.38;;;;;;;10.09;62.33;101213.09;4972320;28;20054;-60
2022/10/07 06:32:43;;;;;;;7.82;6.20;;;;;;;10.77;60.12;101204.56;4972475;28;20066;-59
2022/10/07 06:35:11;;;;;;;8.60;4.68;;;;;;;11.46;58.49;101209.72;4971757;28;20396;-60
2022/10/07 06:37:38;;;;;;;7.18;5.05;;;;;;;12.21;56.79;101215.53;4971997;28;20526;-59
2022/10/07 06:40:06;;;;;;;6.60;4.20;;;;;;;13.00;54.11;101212.56;4971636;28;20062;-60
2022/10/07 06:42:34;;;;;;;11.23;5.22;;;;;;;13.81;52.38;101204.22;4969778;28;20066;-60
2022/10/07 06:45:02;;;;;;;6.97;4.40;;;;;;;14.65;49.47;101201.75;4973262;28;20061;-61
2022/10/07 06:47:29;;;;;;;10.48;5.22;;;;;;;15.33;47.01;101201.41;4973290;28;20055;-61
2022/10/07 06:49:57;;;;;;;8.75;5.30;;;;;;;15.87;46.85;101195.50;4969227;28;20054;-61
2022/10/07 06:52:24;;;;;;;9.70;5.65;;;;;;;16.47;45.24;101193.69;4973388;28;20065;-62
2022/10/07 06:54:51;;;;;;;8.23;4.97;;;;;;;16.79;43.99;101190.22;4946906;28;20059;-61
2022/10/07 06:57:18;;;;;;;8.43;4.93;;;;;;;17.43;42.92;101191.16;4948568;28;20427;-61
2022/10/07 06:59:46;;;;;;;10.95;6.25;;;;;;;18.09;41.71;101184.75;4933145;28;20066;-61
2022/10/07 07:02:14;;;;;;;13.93;8.38;;;;;;;18.80;39.92;101196.88;4943603;28;20063;-60
2022/10/07 07:04:42;;;;;;;8.63;6.10;;;;;;;19.32;38.96;101190.47;4935117;28;20055;-61
2022/10/07 07:07:10;;;;;;;11.40;6.43;;;;;;;19.98;37.21;101196.84;4945607;28;20082;-62
2022/10/07 07:09:37;;;;;;;11.32;6.07;;;;;;;20.56;36.15;101200.03;4936079;28;20055;-62
2022/10/07 07:12:05;;;;;;;11.85;5.65;;;;;;;21.14;35.28;101190.13;4934331;29;20063;-62
2022/10/07 07:14:33;;;;;;;7.50;5.50;;;;;;;21.67;34.60;101185.69;4947222;28;20055;-62
2022/10/07 07:17:01;;;;;;;9.73;6.20;;;;;;;22.16;33.71;101191.91;4937002;28;20070;-62
2022/10/07 07:19:29;;;;;;;9.85;7.32;;;;;;;22.66;32.61;101193.66;4950404;28;20047;-61
2022/10/07 07:21:57;;;;;;;9.48;5.43;;;;;;;22.93;31.91;101190.84;4946880;28;20051;-57
2022/10/07 07:24:24;;;;;;;9.65;5.38;;;;;;;22.89;32.30;101190.78;4948109;28;20504;-61
2022/10/07 07:26:51;;;;;;;7.97;5.68;;;;;;;23.41;31.72;101191.16;4934166;29;20504;-62
2022/10/07 07:29:19;;;;;;;7.60;5.55;;;;;;;23.94;30.53;101193.09;4943356;28;20059;-62
2022/10/07 07:31:48;;;;;;;7.30;4.70;;;;;;;24.10;30.31;101192.84;4964627;28;20054;-62
2022/10/07 07:34:15;;;;;;;8.45;5.32;;;;;;;24.55;29.82;101192.91;4967438;28;20050;-62
2022/10/07 07:36:47;;;;;;;10.25;4.75;;;;;;;25.15;29.38;101186.06;4962988;28;20077;-62
2022/10/07 07:39:16;;;;;;;10.25;4.22;;;;;;;25.26;29.54;101181.25;4968251;28;20162;-61
2022/10/07 07:41:45;;;;;;;;;;;;;;;25.08;29.20;101190.50;4957993;28;20056;-62
2022/10/07 07:44:15;;;;;;;7.60;4.35;;;;;;;26.07;28.88;101167.75;4961643;28;20294;-62
2022/10/07 07:46:47;;;;;;;6.88;3.63;;;;;;;27.17;27.28;101173.91;4968590;28;20066;-63
2022/10/07 07:49:15;;;;;;;11.20;4.53;;;;;;;27.90;25.96;101174.09;4958652;28;20057;-62
2022/10/07 07:51:43;;;;;;;6.90;3.85;;;;;;;28.60;25.56;101164.66;4962242;28;20384;-61
2022/10/07 07:54:12;;;;;;;9.52;5.07;;;;;;;29.51;24.91;101163.34;4952984;28;20055;-62
2022/10/07 07:56:39;;;;;;;7.88;3.95;;;;;;;29.99;23.92;101161.50;4964290;28;20065;-62
2022/10/07 07:59:08;;;;;;;6.90;3.88;;;;;;;30.56;23.28;101159.81;4969947;28;20058;-62
2022/10/07 08:01:35;;;;;;;9.63;3.70;;;;;;;30.79;22.48;101155.34;4970632;28;20062;-62
2022/10/07 08:04:03;;;;;;;7.38;4.25;;;;;;;31.21;22.61;101153.72;4970708;28;20069;-62
2022/10/07 08:06:31;;;;;;;8.47;4.00;;;;;;;31.34;22.53;101139.50;4970773;28;20055;-62
2022/10/07 08:09:00;;;;;;;8.02;4.22;;;;;;;31.52;22.36;101142.00;4968337;28;20485;-63
2022/10/07 08:11:28;;;;;;;10.05;5.55;;;;;;;31.92;22.11;101148.56;4971765;28;20510;-62
2022/10/07 08:13:56;;;;;;;10.55;6.97;;;;;;;31.71;22.14;101144.09;4969586;28;20065;-61
2022/10/07 08:16:25;;;;;;;10.88;4.05;;;;;;;31.99;22.00;101152.56;4971253;28;20061;-62
2022/10/07 08:18:54;;;;;;;9.70;6.45;;;;;;;32.66;21.34;101153.00;4969614;28;20066;-63
2022/10/07 08:23:58;;;;;;;10.45;6.32;;;;;;;33.33;21.25;101148.75;1872416;23;20057;-58
2022/10/07 08:26:33;;;;;;;9.88;4.65;;;;;;;33.82;20.86;101136.97;4974005;28;20055;-62
2022/10/07 08:29:01;;;;;;;8.27;4.22;;;;;;;34.08;19.98;101126.25;4970646;28;20058;-58
2022/10/07 08:31:29;;;;;;;6.43;4.03;;;;;;;34.56;20.47;101132.91;4967153;28;20070;-58
2022/10/07 08:33:58;;;;;;;7.15;3.63;;;;;;;34.68;20.33;101128.41;4974074;28;20066;-57
2022/10/07 08:36:27;;;;;;;6.53;3.30;;;;;;;34.91;19.72;101121.38;4974310;28;20055;-57
2022/10/07 08:38:54;;;;;;;6.13;3.42;;;;;;;34.74;20.78;101117.88;4972813;28;20058;-57
2022/10/07 08:41:36;;;;;;;7.20;3.47;;;;;;;35.31;19.49;101119.97;4974070;28;20499;-58
2022/10/07 08:44:15;;;;;;;8.10;3.45;;;;;;;35.60;19.67;101116.00;4969333;28;20059;-58
2022/10/07 08:46:51;;;;;;;5.10;3.35;;;;;;;35.96;19.09;101116.19;4975072;28;20051;-57
2022/10/07 08:49:27;;;;;;;4.70;2.70;;;;;;;36.36;19.14;101121.19;4973053;28;20427;-57
2022/10/07 08:52:01;;;;;;;5.03;2.53;;;;;;;36.69;18.28;101111.16;4974221;28;20414;-57
2022/10/07 08:54:30;;;;;;;5.22;2.67;;;;;;;37.05;18.84;101113.25;4974297;28;20065;-57
2022/10/07 08:57:05;;;;;;;6.88;2.47;;;;;;;37.68;17.35;101104.97;4971998;28;20058;-57
2022/10/07 08:59:35;;;;;;;5.40;2.60;;;;;;;38.12;17.27;101101.59;4973415;28;20063;-57
2022/10/07 09:02:18;;;;;;;6.82;2.17;;;;;;;37.23;16.99;101106.63;4973778;28;20054;-58
2022/10/07 09:04:53;;;;;;;5.13;2.00;;;;;;;36.49;17.91;101099.94;4971157;28;20054;-58
2022/10/07 09:07:32;;;;;;;5.50;2.05;;;;;;;36.25;17.94;101099.75;4972247;28;20418;-58
2022/10/07 09:10:04;;;;;;;6.55;2.42;;;;;;;36.32;17.96;101099.44;4974633;28;20054;-57
2022/10/07 09:12:39;;;;;;;6.50;2.50;;;;;;;36.84;17.77;101093.91;4973319;28;20054;-58
2022/10/07 09:15:16;;;;;;;4.85;2.60;;;;;;;36.71;17.89;101088.25;4972811;28;20054;-58
2022/10/07 09:17:52;;;;;;;6.53;2.35;;;;;;;36.90;16.84;101086.16;4966648;28;20067;-57
2022/10/07 09:20:21;;;;;;;7.82;2.25;;;;;;;35.66;18.40;101090.91;4973449;28;20528;-57
2022/10/07 09:22:53;;;;;;;5.65;2.35;;;;;;;35.53;19.02;101076.47;4974109;28;20047;-57
2022/10/07 09:25:23;;;;;;;5.63;2.10;;;;;;;35.28;19.09;101083.25;4973070;28;20057;-57
2022/10/07 09:27:53;;;;;;;4.20;1.90;;;;;;;36.05;18.58;101085.63;4972948;28;20427;-58
2022/10/07 09:30:23;;;;;;;4.28;2.22;;;;;;;36.77;18.37;101084.22;4970231;28;20106;-59
2022/10/07 09:32:53;;;;;;;8.23;2.10;;;;;;;36.07;17.47;101083.03;4971761;28;20059;-57
2022/10/07 09:35:23;;;;;;;4.88;2.17;;;;;;;36.41;17.62;101073.31;4973363;28;20058;-58
2022/10/07 09:37:59;;;;;;;3.90;1.83;;;;;;;36.57;16.99;101066.44;4971931;28;20066;-57
2022/10/07 09:40:36;;;;;;;7.88;2.45;;;;;;;36.45;17.31;101068.16;4971826;28;20063;-57
2022/10/07 09:43:12;;;;;;;5.00;2.33;;;;;;;35.97;17.59;101059.00;4970340;28;20065;-58
2022/10/07 09:45:45;;;;;;;6.93;1.98;;;;;;;36.21;18.06;101065.06;4965604;28;20055;-57
2022/10/07 09:48:20;;;;;;;4.53;1.65;;;;;;;35.68;17.91;101057.28;4972262;28;20388;-57
2022/10/07 09:50:48;;;;;;;5.03;2.28;;;;;;;35.80;18.24;101052.66;4972411;28;20051;-57
2022/10/07 09:53:22;;;;;;;5.68;2.20;;;;;;;36.07;18.50;101054.03;4972493;28;20069;-58
2022/10/07 09:55:50;;;;;;;7.53;2.30;;;;;;;36.39;16.96;101052.69;4967145;28;20062;-58
2022/10/07 09:58:25;;;;;;;;;;;;;;;36.26;17.70;101058.63;4971167;28;20062;-57
2022/10/07 10:00:54;;;;;;;4.90;1.88;;;;;;;35.60;17.83;101049.34;4971190;28;19929;-57
2022/10/07 10:03:29;;;;;;;6.57;2.20;;;;;;;36.14;17.19;101050.84;4971289;28;20530;-57
2022/10/07 10:05:58;;;;;;;6.05;2.00;;;;;;;36.24;16.75;101051.69;4966985;28;20074;-57
2022/10/07 10:08:29;;;;;;;5.93;2.05;;;;;;;35.82;18.13;101052.19;4971754;28;20502;-57
2022/10/07 10:10:58;;;;;;;8.88;2.15;;;;;;;35.16;18.42;101045.22;4968651;28;20058;-58
2022/10/07 10:13:30;;;;;;;5.57;2.10;;;;;;;35.88;17.48;101050.28;4970981;28;20066;-57
2022/10/07 10:15:58;;;;;;;4.63;2.10;;;;;;;35.72;17.53;101043.47;4971886;28;20502;-58
2022/10/07 10:18:35;;;;;;;5.72;2.08;;;;;;;36.03;17.83;101041.78;4966361;28;20486;-57
2022/10/07 10:21:28;;;;;;;6.43;1.90;;;;;;;35.54;17.60;101038.34;4972043;28;20046;-58
2022/10/07 10:23:57;;;;;;;6.28;2.33;;;;;;;34.51;18.27;101040.13;4967376;28;20063;-57
2022/10/07 10:26:38;;;;;;;6.13;2.20;;;;;;;35.30;18.07;101022.75;4972265;28;20416;-57
2022/10/07 10:29:19;;;;;;;5.85;2.30;;;;;;;35.13;18.70;101028.75;4972123;28;20058;-57
2022/10/07 10:32:16;;;;;;;4.72;2.17;;;;;;;35.33;18.96;101013.13;4969351;28;20059;-57
2022/10/07 10:34:53;;;;;;;6.23;2.90;;;;;;;35.36;18.33;101009.28;4972847;28;20062;-57
2022/10/07 10:37:25;;;;;;;7.25;2.22;;;;;;;35.37;18.59;101010.91;4972806;28;20063;-56
2022/10/07 10:40:07;;;;;;;5.55;2.20;;;;;;;34.52;18.44;101009.91;4974050;28;20054;-57
2022/10/07 10:42:44;;;;;;;4.57;1.80;;;;;;;34.32;19.15;100996.56;4961539;28;20054;-57
2022/10/07 10:45:31;;;;;;;8.43;2.45;;;;;;;34.47;19.55;100998.94;4972327;28;20063;-57
2022/10/07 10:48:17;;;;;;;10.30;4.07;;;;;;;32.70;20.18;101009.47;4973239;28;20059;-58
2022/10/07 10:50:53;;;;;;;6.10;2.50;;;;;;;32.11;20.93;101005.69;4972811;28;20518;-57
2022/10/07 10:53:34;;;;;;;5.63;2.33;;;;;;;32.54;20.80;100986.44;4972219;28;20423;-58
2022/10/07 10:56:21;;;;;;;7.07;2.08;;;;;;;32.14;21.65;100989.53;4973364;28;20059;-57
2022/10/07 10:59:08;;;;;;;6.50;2.03;;;;;;;33.23;20.81;100991.06;4972958;28;20062;-57
2022/10/07 11:01:38;;;;;;;6.05;2.35;;;;;;;32.93;20.78;100965.09;4973031;28;20506;-58
2022/10/07 11:04:27;;;;;;;5.88;2.00;;;;;;;33.32;20.61;100973.84;4973163;28;20058;-58
2022/10/07 11:07:00;;;;;;;5.60;2.20;;;;;;;34.25;19.60;100961.28;4964514;28;20069;-57
2022/10/07 11:09:39;;;;;;;5.80;2.30;;;;;;;34.58;19.52;100958.84;4971617;28;20069;-57
2022/10/07 11:12:21;;;;;;;7.45;2.45;;;;;;;35.46;18.49;100953.00;4965166;28;20495;-57
2022/10/07 11:14:55;;;;;;;5.22;2.17;;;;;;;35.86;18.94;100957.97;4971644;28;20427;-57
2022/10/07 11:17:30;;;;;;;5.07;2.17;;;;;;;36.30;17.54;100951.94;4972372;28;20070;-57
2022/10/07 11:20:11;;;;;;;7.32;2.20;;;;;;;34.90;18.84;100939.47;4972792;28;20063;-57
2022/10/07 11:22:43;;;;;;;5.90;2.00;;;;;;;34.44;19.64;100942.00;4972693;28;20054;-58
2022/10/07 11:25:21;;;;;;;5.50;2.50;;;;;;;34.37;19.10;100932.31;4970045;28;20061;-58
2022/10/07 11:27:59;;;;;;;5.90;2.03;;;;;;;34.66;18.63;100927.59;4970915;28;20077;-58
2022/10/07 11:30:31;;;;;;;6.55;2.30;;;;;;;33.86;19.66;100929.59;4968205;28;20066;-57
2022/10/07 11:33:11;;;;;;;7.35;2.53;;;;;;;33.36;20.27;100928.34;4965173;28;20383;-57
2022/10/07 11:35:43;;;;;;;7.00;2.65;;;;;;;34.05;20.16;100915.31;4968853;28;20055;-58
2022/10/07 11:38:17;;;;;;;5.20;2.58;;;;;;;34.46;19.53;100904.75;4971603;28;20062;-57
2022/10/07 11:40:54;;;;;;;10.27;2.50;;;;;;;35.15;19.35;100904.59;4971404;28;20055;-57
2022/10/07 11:43:28;;;;;;;6.70;2.17;;;;;;;35.87;18.38;100900.81;4972845;28;20055;-57
2022/10/07 11:45:59;;;;;;;7.90;2.80;;;;;;;35.97;18.32;100894.56;4972417;28;20070;-57
2022/10/07 11:48:37;;;;;;;4.68;2.20;;;;;;;35.74;17.99;100893.06;4972766;28;20069;-58
2022/10/07 11:51:08;;;;;;;6.15;2.22;;;;;;;35.82;18.14;100881.94;4971816;28;20522;-57
2022/10/07 11:53:39;;;;;;;5.05;1.73;;;;;;;36.04;18.33;100878.91;4972410;28;20412;-57
2022/10/07 11:56:19;;;;;;;7.13;3.45;;;;;;;35.85;17.91;100878.09;4969680;28;20067;-57
2022/10/07 11:58:58;;;;;;;6.70;2.70;;;;;;;36.21;17.91;100875.72;4976913;28;20062;-58
2022/10/07 12:01:39;;;;;;;;;;;;;;;35.50;18.85;100866.72;4976773;28;20518;-57
2022/10/07 12:04:23;;;;;;;9.40;2.47;;;;;;;36.17;18.23;100867.19;4975882;28;19929;-57
2022/10/07 12:07:40;;;;;;;6.65;2.17;;;;;;;35.88;17.97;100851.03;4976085;28;20478;-57
2022/10/07 12:10:20;;;;;;;4.90;2.25;;;;;;;35.33;18.28;100839.34;4878232;29;20064;-57
2022/10/07 12:12:50;;;;;;;5.05;2.25;;;;;;;35.20;19.58;100841.56;4869100;29;20417;-57
2022/10/07 12:15:29;;;;;;;6.53;2.30;;;;;;;35.24;18.65;100839.28;4934874;28;20058;-58
2022/10/07 12:18:20;;;;;;;7.18;2.17;;;;;;;35.78;18.29;100823.31;4972106;28;20055;-57
2022/10/07 12:21:02;;;;;;;5.38;2.30;;;;;;;35.36;18.15;100827.59;4974199;28;20529;-56
2022/10/07 12:23:43;;;;;;;5.30;2.10;;;;;;;35.33;19.14;100813.25;4976215;28;20061;-57
2022/10/07 12:26:42;;;;;;;6.32;2.40;;;;;;;34.23;19.70;100817.19;4975748;28;20059;-57
2022/10/07 12:29:30;;;;;;;6.90;2.70;;;;;;;33.66;19.77;100822.13;4975872;28;20479;-57
2022/10/07 12:31:57;;;;;;;4.78;2.05;;;;;;;32.76;20.56;100802.81;4971459;28;20062;-57
2022/10/07 12:34:46;;;;;;;6.70;2.43;;;;;;;33.17;20.16;100794.50;4975583;28;20063;-57
2022/10/07 12:37:50;;;;;;;4.82;2.42;;;;;;;32.61;20.16;100792.97;4974818;28;20490;-57
2022/10/07 12:40:26;;;;;;;5.93;2.05;;;;;;;32.85;20.51;100795.53;4974248;28;20063;-57
2022/10/07 12:43:09;;;;;;;5.78;2.30;;;;;;;33.18;19.87;100790.34;4956833;29;20062;-57
2022/10/07 12:45:42;;;;;;;7.18;2.40;;;;;;;33.21;20.54;100782.84;4974615;28;20059;-57
2022/10/07 12:48:16;;;;;;;9.48;2.80;;;;;;;32.84;20.45;100783.16;4974521;28;20054;-57
2022/10/07 12:50:46;;;;;;;7.82;2.15;;;;;;;31.53;21.79;100777.94;4974839;28;20050;-58
2022/10/07 12:53:16;;;;;;;4.32;2.03;;;;;;;32.04;21.29;100772.41;4976900;28;20503;-58
2022/10/07 12:55:49;;;;;;;6.68;2.67;;;;;;;30.94;22.21;100785.59;4974261;28;20059;-57
2022/10/07 13:01:46;;;;;;;7.22;2.80;;;;;;;29.93;23.54;100773.38;4977184;28;20054;-57
2022/10/07 13:04:38;;;;;;;7.65;2.47;;;;;;;30.90;23.42;100767.63;4973981;28;20471;-57
2022/10/07 13:08:00;;;;;;;3.97;2.25;;;;;;;30.84;23.05;100763.63;4972426;28;20055;-56
2022/10/07 13:11:09;;;;;;;5.13;2.42;;;;;;;30.89;23.63;100757.34;4970368;28;20065;-57
2022/10/07 13:13:47;;;;;;;7.10;2.25;;;;;;;31.34;21.75;100742.22;4973728;28;20050;-57
2022/10/07 13:16:21;;;;;;;9.48;2.67;;;;;;;30.89;23.02;100749.56;4968771;28;20059;-57
2022/10/07 13:18:55;;;;;;;5.03;1.90;;;;;;;30.95;22.21;100733.38;4973411;28;20411;-57
2022/10/07 13:21:27;;;;;;;5.88;2.30;;;;;;;30.57;21.99;100738.78;4974395;28;20515;-57
2022/10/07 13:23:55;;;;;;;6.13;2.03;;;;;;;30.44;22.34;100732.09;4974245;28;20062;-57
2022/10/07 13:26:26;;;;;;;5.13;2.15;;;;;;;29.73;23.44;100729.50;4973148;28;20054;-56
2022/10/07 13:28:55;;;;;;;4.72;1.98;;;;;;;29.21;23.58;100728.00;4972065;28;20058;-57
2022/10/07 13:31:24;;;;;;;6.72;2.10;;;;;;;28.22;24.84;100731.13;4956064;28;20075;-57
2022/10/07 13:33:52;;;;;;;8.73;2.88;;;;;;;28.73;24.24;100721.38;4973882;28;20047;-56
2022/10/07 13:36:23;;;;;;;7.47;2.50;;;;;;;27.72;25.27;100723.97;4974928;28;20054;-57
2022/10/07 13:38:52;;;;;;;4.72;1.92;;;;;;;27.65;25.36;100710.53;4974563;28;20059;-57
2022/10/07 13:41:23;;;;;;;5.00;1.80;;;;;;;28.02;25.14;100711.75;4974589;28;20059;-56
2022/10/07 13:43:55;;;;;;;6.65;2.30;;;;;;;27.94;25.45;100715.94;4973838;28;20059;-56
2022/10/07 13:46:26;;;;;;;8.02;2.28;;;;;;;27.48;26.06;100718.06;4972940;28;20074;-56
2022/10/07 13:48:55;;;;;;;6.05;2.40;;;;;;;27.65;25.98;100704.00;4970932;28;20495;-56
2022/10/07 13:51:26;;;;;;;;;;;;;;;28.09;26.23;100694.47;4974962;28;20058;-56
2022/10/07 13:53:57;;;;;;;6.38;2.15;;;;;;;27.87;25.81;100693.13;4971937;28;19949;-56
2022/10/07 13:56:27;;;;;;;6.38;2.15;;;;;;;27.64;25.45;100696.66;4967997;28;20063;-56
2022/10/07 13:58:58;;;;;;;7.93;1.80;;;;;;;27.10;26.22;100692.28;4971769;28;20140;-57
2022/10/07 14:01:29;;;;;;;5.93;1.98;;;;;;;26.58;26.33;100695.16;4974226;28;20427;-57
2022/10/07 14:04:23;;;;;;;5.30;2.40;;;;;;;25.44;27.93;100691.59;4974509;28;20059;-57
2022/10/07 14:06:54;;;;;;;6.32;1.90;;;;;;;25.62;27.95;100685.84;4971893;28;20062;-56
2022/10/07 14:09:32;;;;;;;4.78;1.70;;;;;;;25.79;27.32;100683.34;4974483;28;20059;-56
2022/10/07 14:12:03;;;;;;;5.97;1.42;;;;;;;25.89;27.42;100685.34;4974591;28;20070;-56
2022/10/07 14:14:35;;;;;;;5.22;2.03;;;;;;;25.55;28.05;100671.59;4973721;28;20076;-57
2022/10/07 14:17:10;;;;;;;4.45;1.92;;;;;;;26.04;28.36;100660.41;4973954;28;20066;-57
2022/10/07 14:19:38;;;;;;;5.68;2.35;;;;;;;26.36;29.14;100660.22;4973640;28;20399;-57
2022/10/07 14:22:17;;;;;;;6.47;2.83;;;;;;;26.67;28.39;100660.44;4974562;28;20069;-57
2022/10/07 14:24:53;;;;;;;5.85;2.45;;;;;;;26.65;27.96;100652.28;4974332;28;20047;-56
2022/10/07 14:27:41;;;;;;;5.25;2.38;;;;;;;25.97;27.61;100663.31;4973781;28;20065;-57
2022/10/07 14:30:28;;;;;;;4.70;2.10;;;;;;;25.42;28.25;100650.47;4973816;28;20510;-57
2022/10/07 14:35:47;;;;;;;5.05;1.77;;;;;;;24.90;29.08;100633.84;4975606;28;20415;-57
2022/10/07 14:38:26;;;;;;;7.10;1.73;;;;;;;25.24;29.63;100631.38;4973844;28;20411;-56
2022/10/07 14:40:53;;;;;;;5.57;2.00;;;;;;;25.14;28.86;100631.38;4974215;28;20440;-56
2022/10/07 14:43:21;;;;;;;5.82;1.80;;;;;;;25.10;29.40;100632.19;4974495;28;20055;-57
2022/10/07 14:45:49;;;;;;;9.60;2.63;;;;;;;24.85;29.42;100626.53;4973418;28;20295;-56
2022/10/07 14:48:16;;;;;;;6.55;2.17;;;;;;;24.17;30.57;100631.34;4973949;28;20055;-56
2022/10/07 14:50:44;;;;;;;5.90;1.88;;;;;;;24.35;30.37;100628.56;4973135;28;20062;-56
2022/10/07 14:53:15;;;;;;;8.60;1.98;;;;;;;23.95;30.37;100624.81;4973710;28;20419;-56
2022/10/07 14:55:43;;;;;;;4.38;1.88;;;;;;;24.16;30.43;100621.22;4973791;28;20062;-56
2022/10/07 14:58:10;;;;;;;4.47;1.75;;;;;;;24.22;30.38;100616.75;4973661;28;20055;-56
2022/10/07 15:00:38;;;;;;;5.10;2.25;;;;;;;23.92;31.16;100620.75;4973602;28;20463;-55
2022/10/07 15:03:06;;;;;;;10.20;2.15;;;;;;;22.96;31.90;100615.38;4973627;28;20414;-56
2022/10/07 15:05:34;;;;;;;8.30;1.80;;;;;;;23.20;32.99;100613.91;4973244;28;20069;-56
2022/10/07 15:08:01;;;;;;;7.07;1.98;;;;;;;23.26;31.65;100609.50;4973793;28;20069;-56
2022/10/07 15:10:31;;;;;;;7.25;2.28;;;;;;;22.91;32.24;100613.75;4973449;28;20085;-56
2022/10/07 15:12:58;;;;;;;4.60;1.60;;;;;;;22.80;32.67;100607.97;4973344;28;20066;-56
2022/10/07 15:15:25;;;;;;;5.65;1.70;;;;;;;22.52;33.22;100600.06;4968166;28;20088;-57
2022/10/07 15:17:52;;;;;;;7.57;2.03;;;;;;;22.37;33.72;100601.97;4970193;28;20369;-57
2022/10/07 15:20:21;;;;;;;4.85;1.88;;;;;;;22.27;33.82;100597.81;4969036;28;20063;-55
2022/10/07 15:22:50;;;;;;;6.72;2.58;;;;;;;22.12;34.34;100601.69;4970500;28;20419;-56
2022/10/07 15:25:18;;;;;;;6.03;2.08;;;;;;;22.02;34.69;100600.38;4970436;28;20055;-57
2022/10/07 15:27:45;;;;;;;6.07;2.08;;;;;;;21.89;35.28;100594.16;4971587;28;20062;-57
2022/10/07 15:30:13;;;;;;;7.05;2.03;;;;;;;22.07;35.72;100587.88;4973048;28;20062;-57
2022/10/07 15:32:40;;;;;;;8.15;1.92;;;;;;;22.16;36.10;100585.53;4975293;28;20077;-56
2022/10/07 15:35:08;;;;;;;5.68;2.03;;;;;;;21.84;36.35;100579.53;4976293;28;20050;-56
2022/10/07 15:37:38;;;;;;;8.20;2.28;;;;;;;21.94;36.35;100578.00;4974249;28;20503;-56
2022/10/07 15:40:06;;;;;;;7.57;1.80;;;;;;;21.88;36.60;100569.88;4976976;28;20375;-57
2022/10/07 15:42:33;;;;;;;5.47;2.20;;;;;;;21.79;36.56;100566.50;4975468;28;20085;-57
2022/10/07 15:45:01;;;;;;;6.57;2.22;;;;;;;21.56;37.32;100568.69;4975314;28;20585;-56
2022/10/07 15:47:30;;;;;;;7.75;2.53;;;;;;;21.48;37.38;100568.63;4977220;28;20062;-56
2022/10/07 15:49:57;;;;;;;6.35;2.00;;;;;;;21.42;37.43;100566.53;4974477;28;20054;-57
2022/10/07 15:52:24;;;;;;;9.30;2.22;;;;;;;21.15;37.91;100568.56;4975325;28;20490;-57
2022/10/07 15:54:54;;;;;;;8.52;2.30;;;;;;;20.80;39.05;100564.84;4974990;28;20616;-57
2022/10/07 15:57:23;;;;;;;;;;;;;;;20.93;38.47;100559.75;4974618;28;20066;-57
2022/10/07 15:59:51;;;;;;;9.63;2.50;;;;;;;20.95;38.40;100551.69;4976726;28;19922;-56
2022/10/07 16:02:20;;;;;;;6.50;2.63;;;;;;;20.77;38.68;100562.78;4976875;28;20078;-56
2022/10/07 16:04:47;;;;;;;7.73;2.87;;;;;;;20.43;39.70;100553.31;4976298;28;20062;-56
2022/10/07 16:07:15;;;;;;;9.65;3.40;;;;;;;20.38;39.35;100559.31;4976556;28;20466;-56
2022/10/07 16:09:42;;;;;;;7.18;2.25;;;;;;;20.05;40.95;100557.94;4976932;28;20475;-56
2022/10/07 16:12:12;;;;;;;5.50;2.03;;;;;;;19.80;41.18;100561.16;4976898;28;20058;-57
2022/10/07 16:14:39;;;;;;;7.05;2.33;;;;;;;19.60;41.89;100557.50;4976537;28;20062;-56
2022/10/07 16:17:07;;;;;;;6.60;2.08;;;;;;;19.50;42.15;100552.44;4976591;28;20502;-56
2022/10/07 16:19:34;;;;;;;5.38;2.00;;;;;;;19.49;42.27;100550.84;4974912;28;20050;-57
2022/10/07 16:22:01;;;;;;;8.20;2.25;;;;;;;19.37;42.62;100548.97;4976036;28;20061;-56
2022/10/07 16:24:28;;;;;;;7.60;2.03;;;;;;;19.08;43.54;100553.22;4975904;28;20066;-57
2022/10/07 16:26:56;;;;;;;9.65;2.58;;;;;;;18.95;43.93;100551.72;4976142;28;20062;-56
2022/10/07 16:32:11;;;;;;;10.18;2.35;;;;;;;18.32;45.63;100539.34;4972703;28;20082;-57
2022/10/07 16:34:40;;;;;;;6.47;2.20;;;;;;;18.35;45.26;100540.63;4974080;28;20074;-57
2022/10/07 16:37:07;;;;;;;6.82;2.28;;;;;;;18.20;45.89;100536.63;4974284;28;20418;-56
2022/10/07 16:39:35;;;;;;;7.22;2.85;;;;;;;18.19;45.83;100541.47;4973361;28;20058;-57
2022/10/07 16:42:02;;;;;;;8.20;2.63;;;;;;;18.11;45.98;100541.66;4972049;28;20078;-57
2022/10/07 16:44:31;;;;;;;6.15;2.58;;;;;;;17.85;46.77;100541.00;4966637;28;20055;-57
2022/10/07 16:46:58;;;;;;;7.60;2.85;;;;;;;17.74;47.31;100545.50;4974826;28;20054;-57
2022/10/07 16:49:26;;;;;;;7.57;2.58;;;;;;;17.74;47.19;100542.66;4972642;28;20051;-56
2022/10/07 16:51:54;;;;;;;7.53;3.55;;;;;;;17.69;47.34;100540.13;4974424;28;20073;-56
2022/10/07 16:54:21;;;;;;;7.47;2.30;;;;;;;17.45;47.75;100539.09;4974338;28;20058;-57
2022/10/07 16:56:51;;;;;;;8.57;4.32;;;;;;;17.42;48.02;100531.34;4973290;28;20058;-57
2022/10/07 16:59:20;;;;;;;10.95;3.22;;;;;;;17.32;48.39;100531.06;4973510;28;20395;-56
2022/10/07 17:01:50;;;;;;;10.02;5.13;;;;;;;17.25;49.32;100531.69;4974003;28;20069;-56
2022/10/07 17:04:18;;;;;;;10.85;6.15;;;;;;;17.14;49.83;100530.56;4973605;28;20058;-56
2022/10/07 17:06:45;;;;;;;13.18;5.68;;;;;;;17.01;49.86;100538.22;4974094;28;20077;-57
2022/10/07 17:09:13;;;;;;;9.25;5.80;;;;;;;16.89;50.29;100532.63;4973687;28;20058;-56
2022/10/07 17:11:41;;;;;;;8.93;4.05;;;;;;;16.79;50.94;100528.28;4974241;28;20059;-57
2022/10/07 17:14:10;;;;;;;8.73;4.85;;;;;;;16.68;51.00;100527.94;4971855;28;20415;-57
2022/10/07 17:16:40;;;;;;;12.15;5.32;;;;;;;16.54;51.51;100528.31;4977513;28;20063;-56
2022/10/07 17:19:12;;;;;;;8.50;4.40;;;;;;;16.43;51.70;100535.59;4972896;28;20399;-56
2022/10/07 17:21:40;;;;;;;8.05;3.20;;;;;;;16.27;52.31;100529.03;4973402;28;20054;-57
2022/10/07 17:24:08;;;;;;;8.30;4.82;;;;;;;16.09;52.80;100534.09;4971681;28;20066;-57
2022/10/07 17:26:36;;;;;;;7.97;2.80;;;;;;;16.01;52.83;100538.66;4972151;28;20058;-57
2022/10/07 17:29:06;;;;;;;7.35;4.10;;;;;;;15.90;53.73;100535.47;4972459;28;20070;-57
2022/10/07 17:31:34;;;;;;;8.10;4.32;;;;;;;15.76;53.63;100541.41;4973846;28;20051;-57
2022/10/07 17:34:02;;;;;;;9.27;4.95;;;;;;;15.62;53.58;100538.06;4973764;28;20074;-57
2022/10/07 17:36:31;;;;;;;8.65;3.67;;;;;;;15.57;53.81;100535.50;4973351;28;20066;-56
2022/10/07 17:38:59;;;;;;;7.20;2.75;;;;;;;15.45;54.65;100535.44;4973858;28;20051;-56
2022/10/07 17:41:28;;;;;;;7.38;3.10;;;;;;;15.38;54.66;100527.59;4973128;28;22352;-57
2022/10/07 17:43:57;;;;;;;9.80;2.38;;;;;;;15.30;55.43;100531.31;4974820;28;20055;-56
2022/10/07 17:46:26;;;;;;;9.23;6.23;;;;;;;15.18;54.79;100527.28;4974328;28;20058;-56
2022/10/07 17:48:55;;;;;;;6.57;3.40;;;;;;;15.10;55.78;100535.75;4974289;28;20073;-56
2022/10/07 17:51:26;;;;;;;4.88;1.90;;;;;;;15.04;55.64;100528.75;4974326;28;20059;-56
2022/10/07 17:53:56;;;;;;;7.47;2.53;;;;;;;14.91;56.04;100523.06;4973645;28;20066;-57
2022/10/07 17:56:23;;;;;;;5.50;1.98;;;;;;;14.91;55.67;100523.06;4973179;28;20063;-57
2022/10/07 17:58:51;;;;;;;7.38;2.28;;;;;;;14.85;56.24;100530.06;4974448;28;20063;-56
2022/10/07 18:01:22;;;;;;;6.38;2.92;;;;;;;14.81;55.88;100524.28;4974504;28;20404;-56
2022/10/07 18:03:50;;;;;;;7.47;2.50;;;;;;;14.70;56.48;100523.06;4965217;28;20059;-56